Terminal Aerodrome Forecast
Issued by NWS

Home | Current Version | Previous Version | Text Only | Print | Product List | Glossary On
Versions: 1 2 3 4 5 6 7 8 9 10 11 12 13 14 15 16 17 18
000
FTUS44 KOUN 290520
TAFCSM
TAF
KCSM 290520Z 2906/3006 08014G20KT P6SM SCT050 BKN120
      TEMPO 2909/2912 4SM -TSRA BR OVC030CB
     FM291200 08012G17KT 4SM -TSRA BR OVC012CB
     FM291800 12013KT P6SM BKN025
     FM292100 15014G20KT P6SM BKN040
     FM300000 34013KT P6SM SCT040 BKN120=

USA.gov is the U.S. government's official web portal to all federal, state and local government web resources and services.